Time;durP1;ratioP1;P1;durP2;ratioP2;P2;SDS_P1;SDS_P2;PMS_P1;PMS_P2;Temp;Humidity;BMP_temperature;BMP_pressure;BME280_temperature;BME280_humidity;BME280_pressure;Samples;Min_cycle;Max_cycle;Signal;HPM_P1;HPM_P2
2022/01/01 00:01:04;;;;;;;1.47;1.37;;;;;;;6.70;100.00;95814.13;5134228;27;20493;-50
2022/01/01 00:03:33;;;;;;;2.23;2.13;;;;;;;6.64;100.00;95821.13;5134303;27;20804;-50
2022/01/01 00:06:06;;;;;;;1.67;1.57;;;;;;;6.04;100.00;95746.13;5134367;27;20466;-50
2022/01/01 00:08:34;;;;;;;1.77;1.70;;;;;;;6.68;100.00;95803.03;5133636;27;20487;-50
2022/01/01 00:11:02;;;;;;;2.60;2.50;;;;;;;6.95;100.00;95794.38;5134402;27;20521;-50
2022/01/01 00:13:51;;;;;;;3.60;3.23;;;;;;;7.05;100.00;95796.38;5133726;27;20450;-50
2022/01/01 00:16:19;;;;;;;2.90;2.77;;;;;;;6.22;100.00;95796.78;5133999;27;20447;-50
2022/01/01 00:18:48;;;;;;;0.50;0.50;;;;;;;6.17;100.00;95788.78;5133769;27;20429;-50
2022/01/01 00:21:18;;;;;;;3.80;3.70;;;;;;;6.39;100.00;95781.91;5134115;27;20699;-50
2022/01/01 00:23:46;;;;;;;0.87;0.87;;;;;;;6.78;100.00;95784.81;5133719;27;20995;-50
2022/01/01 00:26:15;;;;;;;4.17;3.97;;;;;;;6.91;100.00;95780.03;5133845;27;21169;-50
2022/01/01 00:28:44;;;;;;;1.23;1.23;;;;;;;6.93;100.00;95785.88;5133829;27;20450;-50
2022/01/01 00:31:12;;;;;;;1.17;1.00;;;;;;;6.65;100.00;95787.69;5133840;27;20419;-50
2022/01/01 00:33:41;;;;;;;1.50;1.40;;;;;;;6.33;100.00;95801.25;5133732;27;20441;-50
2022/01/01 00:36:09;;;;;;;1.93;1.90;;;;;;;4.92;100.00;95818.00;5133791;27;20961;-50
2022/01/01 00:38:39;;;;;;;1.40;1.40;;;;;;;4.66;100.00;95826.97;5133659;27;20476;-50
2022/01/01 00:41:08;;;;;;;1.07;1.07;;;;;;;5.28;100.00;95817.09;5133686;27;20414;-50
2022/01/01 00:43:36;;;;;;;1.30;1.20;;;;;;;5.14;100.00;95819.91;5133587;27;20430;-50
2022/01/01 00:46:04;;;;;;;1.17;1.17;;;;;;;4.82;100.00;95823.78;5133842;27;20566;-50
2022/01/01 00:48:33;;;;;;;0.60;0.60;;;;;;;5.54;100.00;95809.63;5133524;27;20427;-50
2022/01/01 00:51:21;;;;;;;0.93;0.93;;;;;;;5.48;100.00;95734.31;5133384;27;20966;-50
2022/01/01 00:53:51;;;;;;;1.77;1.73;;;;;;;6.14;100.00;95791.88;5133340;27;20518;-50
2022/01/01 00:56:20;;;;;;;1.53;1.53;;;;;;;5.70;100.00;95780.06;5133439;27;20502;-50
2022/01/01 00:58:48;;;;;;;1.60;1.60;;;;;;;5.71;100.00;95759.81;5133232;27;20510;-50
2022/01/01 01:01:17;;;;;;;1.13;1.13;;;;;;;5.46;100.00;95785.50;5133192;27;20532;-50
2022/01/01 01:03:45;;;;;;;1.80;1.70;;;;;;;5.90;100.00;95784.19;5133071;27;20426;-50
2022/01/01 01:06:14;;;;;;;1.90;1.17;;;;;;;5.95;100.00;95779.06;5133421;27;20469;-50
2022/01/01 01:08:42;;;;;;;0.67;0.67;;;;;;;5.99;100.00;95780.22;5133442;27;20429;-50
2022/01/01 01:11:12;;;;;;;1.10;1.10;;;;;;;5.67;100.00;95774.44;5133004;27;20469;-50
2022/01/01 01:13:44;;;;;;;1.03;1.03;;;;;;;6.01;100.00;95763.16;5133116;27;20452;-50
2022/01/01 01:16:13;;;;;;;1.23;0.83;;;;;;;5.96;100.00;95757.78;5132953;27;20509;-50
2022/01/01 01:18:41;;;;;;;0.70;0.60;;;;;;;6.32;100.00;95769.91;5132495;27;20902;-50
2022/01/01 01:21:10;;;;;;;4.30;2.13;;;;;;;5.85;100.00;95763.84;5132590;27;20446;-50
2022/01/01 01:23:38;;;;;;;0.93;0.93;;;;;;;5.84;100.00;95759.59;5132905;27;20513;-50
2022/01/01 01:26:08;;;;;;;2.70;2.60;;;;;;;5.78;100.00;95758.69;5132765;27;21060;-50
2022/01/01 01:28:40;;;;;;;5.40;1.53;;;;;;;6.12;100.00;95764.19;5132920;27;20469;-50
2022/01/01 01:31:08;;;;;;;3.03;2.87;;;;;;;6.15;100.00;95754.00;5133068;27;20952;-50
2022/01/01 01:33:36;;;;;;;0.30;0.20;;;;;;;6.38;100.00;95748.69;5132861;28;20481;-50
2022/01/01 01:36:05;;;;;;;1.13;1.13;;;;;;;6.40;100.00;95746.63;5132809;27;20509;-50
2022/01/01 01:38:36;;;;;;;2.53;1.57;;;;;;;6.39;100.00;95745.06;5132852;27;20474;-50
2022/01/01 01:41:06;;;;;;;0.83;0.83;;;;;;;6.25;100.00;95734.97;5133069;28;20476;-50
2022/01/01 01:43:35;;;;;;;0.70;0.70;;;;;;;6.28;100.00;95737.16;5132755;28;20473;-51
2022/01/01 01:46:06;;;;;;;0.30;0.30;;;;;;;5.84;100.00;95735.13;5132643;28;20974;-50
2022/01/01 01:48:37;;;;;;;2.93;1.07;;;;;;;5.51;100.00;95743.56;5132714;27;20487;-50
2022/01/01 01:51:06;;;;;;;0.40;0.40;;;;;;;6.04;100.00;95732.97;5132615;28;20430;-50
2022/01/01 01:53:34;;;;;;;2.30;2.10;;;;;;;6.27;100.00;95731.09;5132617;28;20999;-50
2022/01/01 01:56:03;;;;;;;3.53;1.67;;;;;;;6.24;100.00;95705.25;5132539;28;20430;-50
2022/01/01 01:58:31;;;;;;;0.30;0.20;;;;;;;6.11;100.00;95694.16;5132597;28;20509;-50
2022/01/01 02:01:20;;;;;;;0.40;0.37;;;;;;;6.37;100.00;95714.72;5132673;27;20498;-50
2022/01/01 02:03:54;;;;;;;0.50;0.50;;;;;;;6.05;100.00;95711.69;5132525;28;20491;-50
2022/01/01 02:06:23;;;;;;;0.30;0.30;;;;;;;6.31;100.00;95713.81;5132695;28;20501;-51
2022/01/01 02:08:52;;;;;;;1.93;0.47;;;;;;;6.29;100.00;95713.25;5132515;28;20419;-50
2022/01/01 02:11:23;;;;;;;0.30;0.20;;;;;;;6.28;100.00;95714.28;5132316;28;20461;-50
2022/01/01 02:14:08;;;;;;;0.33;0.30;;;;;;;6.17;100.00;95712.44;5132679;28;20829;-50
2022/01/01 02:16:52;;;;;;;0.60;0.60;;;;;;;5.70;100.00;95709.03;5132257;28;20473;-50
2022/01/01 02:19:24;;;;;;;5.40;1.73;;;;;;;5.78;100.00;95694.75;5132367;28;20442;-50
2022/01/01 02:21:56;;;;;;;1.33;1.33;;;;;;;6.11;100.00;95707.31;5132354;28;21045;-50
2022/01/01 02:24:25;;;;;;;0.70;0.70;;;;;;;6.19;100.00;95701.72;5132568;28;20430;-50
2022/01/01 02:26:54;;;;;;;0.40;0.40;;;;;;;6.31;100.00;95690.13;5132471;28;20462;-50
2022/01/01 02:29:23;;;;;;;0.30;0.20;;;;;;;6.35;100.00;95679.91;5132304;28;21076;-50
2022/01/01 02:31:51;;;;;;;0.40;0.30;;;;;;;6.33;100.00;95672.25;5135106;27;20442;-50
2022/01/01 02:34:20;;;;;;;1.03;1.03;;;;;;;6.38;100.00;95664.47;5136346;27;20421;-50
2022/01/01 02:36:49;;;;;;;0.63;0.63;;;;;;;6.37;100.00;95678.63;5136107;27;20430;-50
2022/01/01 02:39:20;;;;;;;0.90;0.90;;;;;;;6.29;100.00;95665.06;5136518;27;20506;-51
2022/01/01 02:41:53;;;;;;;0.50;0.50;;;;;;;6.30;100.00;95654.28;5135873;27;20522;-50
2022/01/01 02:44:25;;;;;;;1.07;0.57;;;;;;;5.90;100.00;95585.09;5136056;27;20438;-50
2022/01/01 02:46:54;;;;;;;0.30;0.20;;;;;;;6.19;100.00;95660.41;5135855;27;20461;-50
2022/01/01 02:49:23;;;;;;;0.83;0.83;;;;;;;5.49;100.00;95670.16;5135770;27;20438;-50
2022/01/01 02:51:52;;;;;;;0.37;0.30;;;;;;;5.04;100.00;95672.53;5136058;27;20449;-50
2022/01/01 02:54:21;;;;;;;1.03;1.03;;;;;;;5.43;100.00;95665.03;5135963;27;20484;-50
2022/01/01 02:56:50;;;;;;;0.80;0.70;;;;;;;5.06;100.00;95675.72;5135706;27;20427;-50
2022/01/01 02:59:19;;;;;;;0.80;0.80;;;;;;;5.21;100.00;95682.41;5135896;27;20431;-50
2022/01/01 03:01:47;;;;;;;0.67;0.67;;;;;;;5.60;100.00;95674.63;5135314;27;20471;-50
2022/01/01 03:04:16;;;;;;;1.20;1.20;;;;;;;5.80;100.00;95676.91;5135651;27;20426;-50
2022/01/01 03:06:45;;;;;;;0.70;0.70;;;;;;;5.87;100.00;95671.56;5135513;27;20538;-50
2022/01/01 03:09:14;;;;;;;1.07;1.07;;;;;;;5.70;100.00;95672.22;5135502;27;20513;-50
2022/01/01 03:11:44;;;;;;;2.83;1.00;;;;;;;5.11;100.00;95672.41;5135250;27;20517;-50
2022/01/01 03:14:17;;;;;;;0.40;0.30;;;;;;;4.73;100.00;95680.66;5135676;27;20447;-50
2022/01/01 03:16:45;;;;;;;0.70;0.70;;;;;;;4.79;100.00;95679.78;5135231;27;20434;-50
2022/01/01 03:19:14;;;;;;;0.40;0.30;;;;;;;4.66;100.00;95677.34;5135159;27;20463;-50
2022/01/01 03:21:43;;;;;;;1.33;1.33;;;;;;;4.46;100.00;95684.69;5135461;27;20871;-50
2022/01/01 03:24:11;;;;;;;2.20;1.53;;;;;;;4.93;100.00;95683.03;5135145;27;20506;-50
2022/01/01 03:26:40;;;;;;;0.97;0.90;;;;;;;4.50;100.00;95681.38;5134517;27;20509;-50
2022/01/01 03:29:10;;;;;;;2.77;2.07;;;;;;;4.15;100.00;95645.53;5135378;27;20465;-50
2022/01/01 03:31:38;;;;;;;0.90;0.90;;;;;;;4.97;100.00;95692.84;5134939;27;20462;-50
2022/01/01 03:34:07;;;;;;;1.60;0.93;;;;;;;4.24;100.00;95694.06;5134960;27;20452;-50
2022/01/01 03:36:36;;;;;;;1.50;1.40;;;;;;;4.02;100.00;95698.16;5134454;27;20505;-50
2022/01/01 03:39:05;;;;;;;0.70;0.70;;;;;;;3.57;100.00;95682.66;5134942;27;20426;-51
2022/01/01 03:41:33;;;;;;;1.07;1.07;;;;;;;3.57;100.00;95680.03;5134457;27;20487;-50
2022/01/01 03:44:02;;;;;;;0.60;0.60;;;;;;;3.24;100.00;95674.31;5134151;27;20863;-50
2022/01/01 03:46:32;;;;;;;0.87;0.87;;;;;;;3.87;100.00;95680.16;5134625;27;20499;-50
2022/01/01 03:49:00;;;;;;;1.73;1.70;;;;;;;4.29;100.00;95675.81;5134383;27;20427;-50
2022/01/01 03:51:28;;;;;;;0.87;0.87;;;;;;;4.72;100.00;95684.34;5134543;27;20474;-50
2022/01/01 03:53:57;;;;;;;0.83;0.83;;;;;;;4.88;100.00;95685.53;5134613;27;20450;-50
2022/01/01 03:56:25;;;;;;;1.27;1.27;;;;;;;5.13;100.00;95678.28;5134787;27;20766;-50
2022/01/01 03:58:54;;;;;;;1.27;1.27;;;;;;;4.66;100.00;95679.16;5134475;27;20525;-50
2022/01/01 04:01:22;;;;;;;1.37;1.37;;;;;;;4.93;100.00;95683.81;5134566;27;20489;-50
2022/01/01 04:03:52;;;;;;;1.33;1.23;;;;;;;5.22;100.00;95671.66;5133752;27;20426;-50
2022/01/01 04:06:21;;;;;;;19.80;1.53;;;;;;;5.04;100.00;95675.16;5134585;27;20454;-50
2022/01/01 04:08:49;;;;;;;0.30;0.30;;;;;;;5.18;100.00;95669.69;5134251;27;20561;-50
2022/01/01 04:11:17;;;;;;;0.40;0.40;;;;;;;4.99;100.00;95627.75;5134133;27;20523;-50
2022/01/01 04:13:46;;;;;;;1.33;1.30;;;;;;;5.20;100.00;95660.56;5134518;27;20426;-50
2022/01/01 04:16:16;;;;;;;0.87;0.87;;;;;;;4.65;100.00;95549.75;5134120;27;20410;-50
2022/01/01 04:18:45;;;;;;;0.83;0.83;;;;;;;5.28;100.00;95656.81;5134124;27;20517;-50
2022/01/01 04:21:16;;;;;;;0.70;0.70;;;;;;;5.52;100.00;95674.16;5134050;27;20465;-50
2022/01/01 04:23:46;;;;;;;1.27;1.00;;;;;;;5.53;100.00;95683.66;5134070;27;20483;-50
2022/01/01 04:26:15;;;;;;;0.40;0.40;;;;;;;4.74;100.00;95687.53;5134257;27;20851;-50
2022/01/01 04:28:43;;;;;;;1.77;0.43;;;;;;;4.26;100.00;95689.38;5133813;27;20478;-50
2022/01/01 04:31:13;;;;;;;0.80;0.80;;;;;;;4.22;100.00;95693.47;5134015;27;20461;-50
2022/01/01 04:33:42;;;;;;;5.30;2.30;;;;;;;4.07;100.00;95677.31;5133796;27;20461;-50
2022/01/01 04:36:11;;;;;;;1.37;1.20;;;;;;;4.01;100.00;95686.84;5133646;27;20426;-50
2022/01/01 04:38:42;;;;;;;1.50;1.50;;;;;;;3.77;100.00;95685.88;5133663;27;20462;-50
2022/01/01 04:41:13;;;;;;;2.20;2.00;;;;;;;4.11;100.00;95683.72;5133603;27;20514;-50
2022/01/01 04:43:47;;;;;;;2.40;1.90;;;;;;;4.50;100.00;95675.34;5133587;27;20983;-50
2022/01/01 04:46:16;;;;;;;0.30;0.30;;;;;;;4.84;100.00;95672.03;5133513;27;20461;-50
2022/01/01 04:48:44;;;;;;;2.13;2.10;;;;;;;4.69;100.00;95676.91;5133462;27;20474;-50
2022/01/01 04:51:13;;;;;;;1.00;1.00;;;;;;;4.99;100.00;95676.84;5133726;27;20423;-50
2022/01/01 04:53:44;;;;;;;0.97;0.97;;;;;;;4.47;100.00;95692.34;5133254;27;20440;-50
2022/01/01 04:56:18;;;;;;;0.87;0.73;;;;;;;4.41;100.00;95698.47;5133620;27;20430;-50
2022/01/01 04:58:47;;;;;;;1.03;1.03;;;;;;;4.19;100.00;95696.53;5133702;27;20486;-50
2022/01/01 05:01:16;;;;;;;1.27;1.17;;;;;;;4.42;100.00;95686.16;5132652;27;20523;-50
2022/01/01 05:03:44;;;;;;;1.50;1.50;;;;;;;4.20;100.00;95685.81;5133645;27;20502;-50
2022/01/01 05:06:14;;;;;;;0.60;0.60;;;;;;;4.55;100.00;95687.81;5133670;27;20877;-50
2022/01/01 05:08:44;;;;;;;0.40;0.30;;;;;;;4.59;100.00;95689.75;5133204;27;20557;-50
2022/01/01 05:11:13;;;;;;;0.37;0.30;;;;;;;4.77;100.00;95688.91;5133317;27;20517;-50
2022/01/01 05:13:41;;;;;;;1.10;1.00;;;;;;;4.93;100.00;95683.81;5133021;27;20441;-50
2022/01/01 05:16:14;;;;;;;10.97;1.20;;;;;;;4.99;100.00;95690.00;5133506;27;20505;-50
2022/01/01 05:18:43;;;;;;;0.53;0.53;;;;;;;4.82;100.00;95696.91;5133465;27;20434;-50
2022/01/01 05:21:11;;;;;;;0.60;0.60;;;;;;;5.20;100.00;95693.91;5132952;27;20466;-50
2022/01/01 05:23:40;;;;;;;0.70;0.67;;;;;;;5.08;100.00;95693.91;5133107;27;20426;-50
2022/01/01 05:26:09;;;;;;;1.33;1.03;;;;;;;4.63;100.00;95705.88;5132938;27;20466;-50
2022/01/01 05:28:38;;;;;;;0.60;0.60;;;;;;;4.83;100.00;95706.41;5133126;27;20458;-50
2022/01/01 05:31:06;;;;;;;1.07;1.07;;;;;;;4.85;100.00;95699.91;5133145;27;20498;-50
2022/01/01 05:33:35;;;;;;;3.07;2.20;;;;;;;5.18;100.00;95690.72;5133459;27;20434;-50
2022/01/01 05:36:04;;;;;;;0.70;0.70;;;;;;;4.97;100.00;95692.84;5132717;27;20857;-50
2022/01/01 05:38:32;;;;;;;0.93;0.93;;;;;;;5.23;100.00;95701.34;5132224;28;20427;-50
2022/01/01 05:41:00;;;;;;;1.13;1.13;;;;;;;5.55;100.00;95689.50;5132801;28;20898;-51
2022/01/01 05:43:30;;;;;;;1.40;1.40;;;;;;;5.12;100.00;95666.94;5133123;28;20438;-51
2022/01/01 05:45:59;;;;;;;0.30;0.30;;;;;;;5.41;100.00;95685.50;5132624;28;20998;-51
2022/01/01 05:48:28;;;;;;;0.63;0.63;;;;;;;5.51;100.00;95676.03;5132667;28;20469;-51
2022/01/01 05:50:56;;;;;;;1.70;1.60;;;;;;;5.26;100.00;95670.19;5131407;27;20900;-50
2022/01/01 05:53:25;;;;;;;0.50;0.50;;;;;;;5.13;100.00;95667.75;5132762;27;20502;-50
2022/01/01 05:55:53;;;;;;;1.27;1.17;;;;;;;4.88;100.00;95682.91;5132074;28;20510;-51
2022/01/01 05:58:21;;;;;;;1.70;1.70;;;;;;;4.72;100.00;95676.47;5132697;28;20974;-51
2022/01/01 06:00:51;;;;;;;0.73;0.73;;;;;;;4.37;100.00;95680.78;5132471;28;20498;-51
2022/01/01 06:03:20;;;;;;;5.20;2.77;;;;;;;4.30;100.00;95687.94;5132674;27;21026;-51
2022/01/01 06:05:51;;;;;;;0.63;0.60;;;;;;;4.78;100.00;95685.28;5133843;27;20529;-51
2022/01/01 06:08:20;;;;;;;1.10;1.07;;;;;;;3.94;100.00;95635.50;5137048;27;20458;-51
2022/01/01 06:10:49;;;;;;;6.03;5.73;;;;;;;3.85;100.00;95696.09;5136522;27;20430;-54
2022/01/01 06:13:17;;;;;;;14.10;2.57;;;;;;;4.29;100.00;95678.44;5136637;27;20891;-51
2022/01/01 06:15:46;;;;;;;1.13;0.93;;;;;;;4.21;100.00;95687.41;5136887;27;20457;-50
2022/01/01 06:18:16;;;;;;;4.23;4.13;;;;;;;3.39;100.00;95698.34;5136860;27;20520;-50
2022/01/01 06:20:45;;;;;;;1.00;1.00;;;;;;;2.72;100.00;95691.22;5136735;27;20509;-51
2022/01/01 06:23:13;;;;;;;3.27;3.17;;;;;;;2.91;100.00;95699.97;5136482;27;20907;-51
2022/01/01 06:25:42;;;;;;;1.13;1.13;;;;;;;3.60;100.00;95711.06;5136827;27;20791;-51
2022/01/01 06:28:11;;;;;;;4.20;1.07;;;;;;;3.87;100.00;95708.19;5136276;27;20501;-50
2022/01/01 06:30:40;;;;;;;1.87;1.77;;;;;;;4.14;100.00;95702.44;5136539;27;20441;-51
2022/01/01 06:33:12;;;;;;;2.93;2.83;;;;;;;4.21;100.00;95697.91;5136577;27;20511;-50
2022/01/01 06:35:42;;;;;;;1.70;1.33;;;;;;;4.26;100.00;95707.75;5136088;27;20537;-51
2022/01/01 06:38:12;;;;;;;1.90;1.80;;;;;;;4.38;100.00;95672.66;5135955;27;20517;-50
2022/01/01 06:40:41;;;;;;;1.30;0.73;;;;;;;3.32;100.00;95571.06;5136233;27;20480;-50
2022/01/01 06:43:13;;;;;;;4.80;4.47;;;;;;;3.91;100.00;95701.47;5136059;27;20434;-51
2022/01/01 06:45:42;;;;;;;0.87;0.80;;;;;;;4.02;100.00;95687.66;5136030;27;20841;-51
2022/01/01 06:48:11;;;;;;;2.43;2.20;;;;;;;4.04;100.00;95693.47;5135997;27;20525;-51
2022/01/01 06:50:39;;;;;;;0.30;0.30;;;;;;;4.03;100.00;95666.44;5136258;27;20553;-50
2022/01/01 06:53:12;;;;;;;1.27;1.27;;;;;;;4.22;100.00;95662.81;5136256;27;20934;-50
2022/01/01 06:55:41;;;;;;;1.17;1.17;;;;;;;4.63;100.00;95688.28;5136214;27;20873;-50
2022/01/01 06:58:09;;;;;;;0.77;0.77;;;;;;;4.57;100.00;95688.38;5135792;27;20414;-50
2022/01/01 07:00:39;;;;;;;1.40;1.30;;;;;;;4.42;100.00;95686.16;5135575;27;20486;-50
2022/01/01 07:03:08;;;;;;;2.47;2.37;;;;;;;4.17;100.00;95669.72;5135872;27;20422;-51
2022/01/01 07:05:37;;;;;;;1.17;1.17;;;;;;;4.82;100.00;95692.47;5136154;27;20422;-51
2022/01/01 07:08:05;;;;;;;1.40;1.40;;;;;;;4.82;100.00;95696.91;5135775;27;20446;-50
2022/01/01 07:10:35;;;;;;;0.60;0.60;;;;;;;4.66;100.00;95690.47;5135911;27;20478;-51
2022/01/01 07:13:04;;;;;;;1.83;1.80;;;;;;;5.04;100.00;95696.19;5135974;27;20418;-51
2022/01/01 07:15:32;;;;;;;1.27;1.23;;;;;;;5.41;100.00;95696.00;5135919;27;20628;-51
2022/01/01 07:18:01;;;;;;;2.03;1.93;;;;;;;5.61;100.00;95709.63;5134487;27;20418;-51
2022/01/01 07:20:29;;;;;;;0.30;0.20;;;;;;;5.69;100.00;95710.06;5135483;27;20462;-50
2022/01/01 07:22:57;;;;;;;3.47;3.13;;;;;;;5.79;100.00;95709.50;5135651;27;20482;-50
2022/01/01 07:25:26;;;;;;;0.77;0.77;;;;;;;5.63;100.00;95684.72;5135900;27;20427;-50
2022/01/01 07:27:56;;;;;;;1.63;1.53;;;;;;;5.94;100.00;95702.00;5135609;27;20454;-51
2022/01/01 07:30:25;;;;;;;2.00;1.33;;;;;;;5.99;100.00;95720.50;5135103;27;20565;-51
2022/01/01 07:32:53;;;;;;;0.60;0.60;;;;;;;6.12;100.00;95712.34;5135549;27;20481;-49
2022/01/01 07:35:22;;;;;;;3.13;3.03;;;;;;;5.99;100.00;95709.19;5135043;27;20525;-50
2022/01/01 07:37:52;;;;;;;3.90;3.20;;;;;;;4.89;100.00;95547.91;5135114;27;20472;-50
2022/01/01 07:40:21;;;;;;;3.13;3.03;;;;;;;5.01;100.00;95709.75;5135290;27;20491;-50
2022/01/01 07:42:49;;;;;;;2.47;2.37;;;;;;;4.60;100.00;95675.63;5134567;27;20463;-50
2022/01/01 07:45:21;;;;;;;3.17;3.07;;;;;;;4.99;100.00;95711.81;5135399;27;20430;-50
2022/01/01 07:47:49;;;;;;;3.07;2.83;;;;;;;5.16;100.00;95700.66;5134538;27;20423;-50
2022/01/01 07:50:18;;;;;;;1.43;1.43;;;;;;;4.33;100.00;95600.88;5135073;27;20868;-50
2022/01/01 07:52:46;;;;;;;0.70;0.70;;;;;;;5.18;100.00;95670.50;5134894;27;20455;-50
2022/01/01 07:55:14;;;;;;;1.87;1.77;;;;;;;5.89;100.00;95687.91;5135172;27;20509;-50
2022/01/01 07:57:43;;;;;;;0.60;0.60;;;;;;;5.22;100.00;95669.03;5134710;27;20422;-50
2022/01/01 08:00:14;;;;;;;1.67;1.67;;;;;;;5.44;100.00;95708.72;5134442;27;20552;-51
2022/01/01 08:02:45;;;;;;;1.13;1.13;;;;;;;5.62;100.00;95716.47;5134567;27;20623;-50
2022/01/01 08:05:16;;;;;;;2.60;2.40;;;;;;;4.94;100.00;95653.91;5135203;27;20426;-50
2022/01/01 08:07:45;;;;;;;2.10;2.00;;;;;;;5.52;100.00;95718.88;5134460;27;20431;-50
2022/01/01 08:10:30;;;;;;;1.23;1.23;;;;;;;5.12;100.00;95734.47;5134720;27;20489;-50
2022/01/01 08:12:59;;;;;;;3.70;3.40;;;;;;;5.14;100.00;95732.41;5134344;27;20765;-50
2022/01/01 08:15:28;;;;;;;3.33;2.00;;;;;;;5.01;100.00;95730.75;5134339;27;20802;-50
2022/01/01 08:17:57;;;;;;;2.33;2.23;;;;;;;5.47;100.00;95729.25;5134247;27;20499;-50
2022/01/01 08:20:37;;;;;;;2.20;2.10;;;;;;;5.39;100.00;95661.28;5134200;27;20491;-50
2022/01/01 08:23:05;;;;;;;2.10;2.00;;;;;;;6.37;100.00;95704.97;5134607;27;20447;-50
2022/01/01 08:25:34;;;;;;;2.10;2.00;;;;;;;6.50;100.00;95692.59;5134068;27;20953;-50
2022/01/01 08:28:02;;;;;;;1.00;1.00;;;;;;;7.15;100.00;95691.13;5133733;27;20464;-50
2022/01/01 08:30:31;;;;;;;3.80;2.73;;;;;;;7.47;100.00;95679.00;5134340;27;20474;-50
2022/01/01 08:33:02;;;;;;;1.17;0.50;;;;;;;7.37;100.00;95693.84;5133000;27;20799;-50
2022/01/01 08:35:31;;;;;;;4.07;3.50;;;;;;;7.11;100.00;95679.47;5133902;27;20426;-49
2022/01/01 08:38:00;;;;;;;1.87;1.77;;;;;;;6.91;100.00;95701.00;5133805;27;20509;-50
2022/01/01 08:40:29;;;;;;;2.33;1.33;;;;;;;6.92;100.00;95688.63;5133857;27;21008;-50
2022/01/01 08:42:58;;;;;;;1.77;1.67;;;;;;;7.31;100.00;95694.84;5133725;27;20422;-49
2022/01/01 08:45:32;;;;;;;2.60;1.00;;;;;;;7.41;100.00;95669.41;5133538;27;20874;-50
2022/01/01 08:48:02;;;;;;;6.00;4.10;;;;;;;8.46;100.00;95702.81;5134088;27;20521;-49
2022/01/01 08:50:30;;;;;;;2.10;2.00;;;;;;;9.26;100.00;95687.00;5133575;27;20502;-49
2022/01/01 08:52:59;;;;;;;2.63;2.53;;;;;;;9.36;100.00;95689.75;5133941;27;20449;-49
2022/01/01 08:55:29;;;;;;;2.17;2.07;;;;;;;8.75;100.00;95691.78;5133869;27;20507;-49
2022/01/01 08:57:57;;;;;;;2.10;1.80;;;;;;;9.36;100.00;95700.31;5133925;27;20423;-49
2022/01/01 09:00:46;;;;;;;2.07;2.00;;;;;;;9.72;100.00;95691.59;5133150;27;20485;-49
2022/01/01 09:03:16;;;;;;;1.30;1.20;;;;;;;9.32;100.00;95684.13;5133343;27;20438;-48
2022/01/01 09:05:45;;;;;;;1.83;1.43;;;;;;;9.54;100.00;95690.13;5133716;27;20799;-48
2022/01/01 09:08:32;;;;;;;1.00;1.00;;;;;;;9.04;100.00;95620.16;5133926;27;20494;-49
2022/01/01 09:11:01;;;;;;;1.67;1.60;;;;;;;9.76;100.00;95687.41;5133363;27;20479;-49
2022/01/01 09:13:30;;;;;;;1.97;1.87;;;;;;;9.66;100.00;95679.38;5133442;27;20513;-48
2022/01/01 09:15:58;;;;;;;2.70;2.23;;;;;;;10.43;97.59;95684.06;5133133;27;20434;-49
2022/01/01 09:18:28;;;;;;;3.43;3.13;;;;;;;10.87;93.79;95677.34;5133378;27;20982;-49
2022/01/01 09:20:56;;;;;;;2.27;2.17;;;;;;;11.63;84.33;95680.06;5133166;27;20975;-49
2022/01/01 09:23:27;;;;;;;4.97;4.67;;;;;;;11.95;78.25;95667.28;5133093;27;21049;-49
2022/01/01 09:25:56;;;;;;;5.80;2.03;;;;;;;13.13;73.51;95670.03;5133017;27;20430;-49
2022/01/01 09:28:24;;;;;;;2.47;2.27;;;;;;;14.20;68.27;95660.84;5133061;27;20525;-49
2022/01/01 09:30:53;;;;;;;2.10;1.70;;;;;;;14.60;62.18;95654.25;5133369;27;20514;-50
2022/01/01 09:33:21;;;;;;;5.60;3.67;;;;;;;14.64;64.29;95647.28;5132877;27;20872;-52
2022/01/01 09:35:51;;;;;;;5.40;3.90;;;;;;;15.16;57.73;95644.41;5133266;27;20423;-52
2022/01/01 09:38:20;;;;;;;2.67;2.50;;;;;;;15.43;54.83;95632.28;5133038;27;20471;-52
2022/01/01 09:40:49;;;;;;;5.83;2.47;;;;;;;15.12;56.00;95627.41;5132321;27;20462;-52
2022/01/01 09:43:18;;;;;;;2.70;2.50;;;;;;;15.96;54.23;95574.72;5132846;28;20515;-53
2022/01/01 09:45:47;;;;;;;12.27;2.90;;;;;;;16.34;55.25;95632.25;5132633;28;20448;-54
2022/01/01 09:48:16;;;;;;;7.30;6.17;;;;;;;16.84;54.11;95627.00;5132777;28;20821;-54
2022/01/01 09:50:47;;;;;;;5.03;4.73;;;;;;;16.01;53.09;95609.38;5132337;28;20861;-54
2022/01/01 09:53:17;;;;;;;5.07;4.80;;;;;;;15.58;55.29;95621.38;5132949;28;20414;-53
2022/01/01 09:55:46;;;;;;;21.03;7.10;;;;;;;14.24;55.90;95490.44;5133006;28;20431;-54
2022/01/01 09:58:15;;;;;;;3.87;3.47;;;;;;;14.17;58.42;95527.31;5132624;28;20451;-53
2022/01/01 10:00:43;;;;;;;3.17;3.07;;;;;;;13.95;60.65;95608.59;5132586;28;20481;-53
2022/01/01 10:03:13;;;;;;;4.30;3.40;;;;;;;13.62;63.95;95627.31;5132791;28;20431;-52
2022/01/01 10:05:58;;;;;;;11.20;8.07;;;;;;;12.95;72.21;95636.84;5132770;27;20476;-52
2022/01/01 10:08:28;;;;;;;2.20;2.07;;;;;;;12.54;79.87;95622.97;5132313;28;20934;-52
2022/01/01 10:10:57;;;;;;;7.60;2.10;;;;;;;12.21;81.92;95634.28;5132273;28;20508;-52
2022/01/01 10:13:30;;;;;;;1.97;1.87;;;;;;;12.88;80.47;95631.03;5132761;28;20439;-52
2022/01/01 10:16:02;;;;;;;1.57;1.47;;;;;;;13.00;74.48;95630.69;5132288;27;20869;-51
2022/01/01 10:18:32;;;;;;;1.97;1.87;;;;;;;12.61;76.95;95607.50;5132376;27;20511;-51
2022/01/01 10:21:05;;;;;;;27.23;9.80;;;;;;;12.16;81.46;95621.00;5132730;28;20458;-51
2022/01/01 10:23:37;;;;;;;7.03;5.87;;;;;;;12.84;77.44;95634.50;5132794;28;20423;-51
2022/01/01 10:29:15;;;;;;;2.73;2.60;;;;;;;13.23;72.92;95603.41;5132741;28;20415;-52
2022/01/01 10:31:59;;;;;;;2.33;2.23;;;;;;;13.42;71.18;95510.31;5132311;28;20565;-52
2022/01/01 10:34:30;;;;;;;2.93;2.73;;;;;;;14.60;63.26;95537.69;5132566;27;20514;-52
2022/01/01 10:36:59;;;;;;;1.43;1.37;;;;;;;15.90;60.36;95607.97;5132196;27;20427;-54
2022/01/01 10:39:29;;;;;;;1.33;1.23;;;;;;;16.34;59.12;95610.09;5131772;28;20462;-54
2022/01/01 10:42:00;;;;;;;1.10;1.03;;;;;;;15.60;57.37;95544.38;5132507;28;20462;-54
2022/01/01 10:44:33;;;;;;;12.00;3.17;;;;;;;15.79;57.19;95585.97;5132687;28;20478;-54
2022/01/01 10:47:06;;;;;;;2.30;2.10;;;;;;;16.58;56.29;95585.78;5131877;27;20483;-53
2022/01/01 10:49:51;;;;;;;2.90;2.60;;;;;;;17.11;51.88;95568.78;5132457;28;20419;-53
2022/01/01 10:52:28;;;;;;;4.30;1.80;;;;;;;18.15;51.20;95570.97;5134194;27;20565;-53
2022/01/01 10:54:59;;;;;;;2.67;2.33;;;;;;;17.84;48.98;95578.25;5135820;27;20468;-53
2022/01/01 10:57:33;;;;;;;3.47;3.17;;;;;;;15.95;52.51;95581.16;5135368;27;20466;-54
2022/01/01 11:00:13;;;;;;;2.13;2.03;;;;;;;14.19;61.76;95581.16;5135685;27;21062;-53
2022/01/01 11:02:44;;;;;;;2.87;2.67;;;;;;;13.74;63.98;95444.72;5135976;27;20458;-53
2022/01/01 11:05:13;;;;;;;2.13;2.03;;;;;;;15.14;59.36;95547.00;5135824;27;20430;-54
2022/01/01 11:07:51;;;;;;;2.87;2.73;;;;;;;14.58;60.89;95529.19;5135566;27;20540;-53
2022/01/01 11:10:23;;;;;;;1.63;1.53;;;;;;;15.03;61.36;95572.28;5135412;27;20419;-53
2022/01/01 11:12:52;;;;;;;1.40;0.67;;;;;;;14.62;59.79;95513.41;5135314;27;20460;-52
2022/01/01 11:15:21;;;;;;;1.03;0.97;;;;;;;15.16;57.43;95532.28;5135446;27;20418;-52
2022/01/01 11:17:50;;;;;;;0.87;0.50;;;;;;;14.48;59.07;95509.84;5135283;27;20435;-52
2022/01/01 11:20:21;;;;;;;2.50;1.47;;;;;;;14.36;61.15;95558.28;5135602;27;20497;-52
2022/01/01 11:22:50;;;;;;;1.70;1.60;;;;;;;15.18;58.14;95566.69;5135325;27;20452;-51
2022/01/01 11:25:19;;;;;;;3.67;1.17;;;;;;;15.77;57.41;95550.75;5135306;27;20501;-51
2022/01/01 11:27:49;;;;;;;1.50;1.47;;;;;;;16.21;54.70;95549.34;5135313;27;20469;-53
2022/01/01 11:30:18;;;;;;;0.60;0.60;;;;;;;16.34;52.01;95573.41;5135197;27;20430;-54
2022/01/01 11:32:51;;;;;;;1.40;1.40;;;;;;;16.70;51.00;95562.78;5134904;27;20505;-54
2022/01/01 11:35:22;;;;;;;1.00;1.00;;;;;;;17.21;51.24;95524.91;5134485;27;20418;-54
2022/01/01 11:38:00;;;;;;;0.67;0.67;;;;;;;18.51;48.24;95554.72;5134885;27;20521;-53
2022/01/01 11:40:34;;;;;;;2.10;1.80;;;;;;;18.26;46.09;95544.66;5135298;27;20505;-53
2022/01/01 11:43:04;;;;;;;3.00;2.57;;;;;;;19.50;43.32;95543.03;5135260;27;20462;-53
2022/01/01 11:45:44;;;;;;;8.30;2.50;;;;;;;19.74;41.45;95539.78;5134932;27;20444;-52
2022/01/01 11:48:35;;;;;;;1.77;1.67;;;;;;;20.94;39.64;95523.81;5134572;27;20438;-52
2022/01/01 11:51:33;;;;;;;3.63;2.40;;;;;;;21.40;37.45;95507.38;5134761;27;20605;-52